createdAt,value
2018-07-08T00:02:00.092Z,73.10
2018-07-08T00:04:28.326Z,73.10
2018-07-08T00:06:59.426Z,72.10
2018-07-08T00:09:27.677Z,71.80
2018-07-08T00:11:55.954Z,71.50
2018-07-08T00:14:24.184Z,72.40
2018-07-08T00:16:52.406Z,72.50
2018-07-08T00:19:20.644Z,72.70
2018-07-08T00:21:48.892Z,72.70
2018-07-08T00:24:17.112Z,73.00
2018-07-08T00:26:45.343Z,73.00
2018-07-08T00:29:13.579Z,73.10
2018-07-08T00:31:41.819Z,72.80
2018-07-08T00:34:10.085Z,72.80
2018-07-08T00:36:38.285Z,72.70
2018-07-08T00:39:07.498Z,72.30
2018-07-08T00:41:35.790Z,72.60
2018-07-08T00:44:03.994Z,72.70
2018-07-08T00:46:32.187Z,73.10
2018-07-08T00:49:00.385Z,73.10
2018-07-08T00:51:28.589Z,73.10
2018-07-08T00:53:56.797Z,73.30
2018-07-08T00:56:24.998Z,73.50
2018-07-08T00:58:53.227Z,73.50
2018-07-08T01:01:21.436Z,73.40
2018-07-08T01:03:49.594Z,73.40
2018-07-08T01:06:18.254Z,73.40
2018-07-08T01:08:46.427Z,73.70
2018-07-08T01:11:14.572Z,72.60
2018-07-08T01:13:42.724Z,73.30
2018-07-08T01:16:10.888Z,73.30
2018-07-08T01:18:39.039Z,73.40
2018-07-08T01:21:07.198Z,73.80
2018-07-08T01:23:35.355Z,73.50
2018-07-08T01:26:10.509Z,74.30
2018-07-08T01:28:39.196Z,73.80
2018-07-08T01:31:07.738Z,74.60
2018-07-08T01:33:35.885Z,74.20
2018-07-08T01:36:04.085Z,73.60
2018-07-08T01:38:32.329Z,73.60
2018-07-08T01:41:00.470Z,73.90
2018-07-08T01:43:29.056Z,74.20
2018-07-08T01:45:57.331Z,74.50
2018-07-08T01:48:25.510Z,74.70
2018-07-08T01:50:53.670Z,75.10
2018-07-08T01:53:22.870Z,74.90
2018-07-08T01:55:51.010Z,75.20
2018-07-08T01:58:19.175Z,75.20
2018-07-08T02:00:47.361Z,75.80
2018-07-08T02:03:15.630Z,76.00
2018-07-08T02:05:43.783Z,76.30
2018-07-08T02:08:11.913Z,76.10
2018-07-08T02:10:40.070Z,75.80
2018-07-08T02:13:08.224Z,75.30
2018-07-08T02:15:36.549Z,74.80
2018-07-08T02:18:04.709Z,74.60
2018-07-08T02:20:32.854Z,74.40
2018-07-08T02:23:01.182Z,75.20
2018-07-08T02:25:29.381Z,75.00
2018-07-08T02:27:57.546Z,75.90
2018-07-08T02:30:25.873Z,76.30
2018-07-08T02:32:54.015Z,75.80
2018-07-08T02:35:22.168Z,76.40
2018-07-08T02:37:50.638Z,75.70
2018-07-08T02:40:18.877Z,75.90
2018-07-08T02:42:47.051Z,75.70
2018-07-08T02:45:15.447Z,75.30
2018-07-08T02:47:43.610Z,75.00
2018-07-08T02:50:11.757Z,75.10
2018-07-08T02:52:40.192Z,75.70
2018-07-08T02:55:08.348Z,75.60
2018-07-08T02:57:36.490Z,75.30
2018-07-08T03:00:05.054Z,75.50
2018-07-08T03:02:33.237Z,75.60
2018-07-08T03:05:01.391Z,75.80
2018-07-08T03:07:29.530Z,75.50
2018-07-08T03:09:57.674Z,75.60
2018-07-08T03:12:25.813Z,75.10
2018-07-08T03:14:53.966Z,75.90
2018-07-08T03:17:22.194Z,75.20
2018-07-08T03:19:50.387Z,75.20
2018-07-08T03:22:18.562Z,75.30
2018-07-08T03:24:46.841Z,75.80
2018-07-08T03:29:42.929Z,74.80
2018-07-08T03:32:11.078Z,75.70
2018-07-08T03:34:39.245Z,75.90
2018-07-08T03:37:07.394Z,76.10
2018-07-08T03:39:35.546Z,76.10
2018-07-08T03:42:03.695Z,76.70
2018-07-08T03:44:31.847Z,76.90
2018-07-08T03:47:00.007Z,76.30
2018-07-08T03:49:28.166Z,75.90
2018-07-08T03:51:56.317Z,76.10
2018-07-08T03:54:26.481Z,77.30
2018-07-08T03:56:54.758Z,77.60
2018-07-08T03:59:23.021Z,77.30
2018-07-08T04:01:51.201Z,78.00
2018-07-08T04:04:19.593Z,78.20
2018-07-08T04:06:47.738Z,78.60
2018-07-08T04:09:16.445Z,79.40
2018-07-08T04:11:44.726Z,79.50
2018-07-08T04:14:12.925Z,79.90
2018-07-08T04:16:41.070Z,80.00
2018-07-08T04:19:09.205Z,79.20
2018-07-08T04:21:37.368Z,79.20
2018-07-08T04:24:05.536Z,78.80
2018-07-08T04:26:33.711Z,79.60
2018-07-08T04:31:29.769Z,79.40
2018-07-08T04:33:57.942Z,80.50
2018-07-08T04:36:26.101Z,80.70
2018-07-08T04:38:54.281Z,80.10
2018-07-08T04:41:22.436Z,80.50
2018-07-08T04:43:50.601Z,79.90
2018-07-08T04:46:18.759Z,80.80
2018-07-08T04:48:47.027Z,80.70
2018-07-08T04:51:15.407Z,80.40
2018-07-08T04:53:43.567Z,80.70
2018-07-08T04:56:11.738Z,81.40
2018-07-08T04:58:39.888Z,81.90
2018-07-08T05:01:08.042Z,82.10
2018-07-08T05:03:36.187Z,82.10
2018-07-08T05:06:04.335Z,81.80
2018-07-08T05:08:32.502Z,81.30
2018-07-08T05:11:00.724Z,81.10
2018-07-08T05:13:28.892Z,81.00
2018-07-08T05:15:57.059Z,81.20
2018-07-08T05:18:25.200Z,79.20
2018-07-08T05:20:53.344Z,78.70
2018-07-08T05:23:21.486Z,78.00
2018-07-08T05:25:49.649Z,77.80
2018-07-08T05:28:17.796Z,78.60
2018-07-08T05:33:13.936Z,78.30
2018-07-08T05:35:42.132Z,79.70
2018-07-08T05:38:10.251Z,79.20
2018-07-08T05:40:38.601Z,78.60
2018-07-08T05:43:06.757Z,78.80
2018-07-08T05:45:34.921Z,78.00
2018-07-08T05:48:03.085Z,78.10
2018-07-08T05:50:31.301Z,78.60
2018-07-08T05:52:59.402Z,78.80
2018-07-08T05:55:27.571Z,77.30
2018-07-08T05:57:55.725Z,77.60
2018-07-08T06:00:23.883Z,78.90
2018-07-08T06:02:52.045Z,77.90
2018-07-08T06:05:20.228Z,76.90
2018-07-08T06:07:48.376Z,77.20
2018-07-08T06:10:16.545Z,76.50
2018-07-08T06:12:44.725Z,76.70
2018-07-08T06:15:12.889Z,75.00
2018-07-08T06:17:41.062Z,73.40
2018-07-08T06:20:10.567Z,73.30
2018-07-08T06:22:39.075Z,73.90
2018-07-08T06:25:07.334Z,73.40
2018-07-08T06:27:35.658Z,72.70
2018-07-08T06:30:10.887Z,71.20
2018-07-08T06:35:07.043Z,71.40
2018-07-08T06:37:35.216Z,72.00
2018-07-08T06:40:03.414Z,71.30
2018-07-08T06:42:31.621Z,71.70
2018-07-08T06:44:59.830Z,71.90
2018-07-08T06:47:28.061Z,72.50
2018-07-08T06:49:56.307Z,72.00
2018-07-08T06:52:24.540Z,72.20
2018-07-08T06:54:52.735Z,72.50
2018-07-08T06:57:20.948Z,73.00
2018-07-08T06:59:49.107Z,70.60
2018-07-08T07:02:17.298Z,69.40
2018-07-08T07:04:45.503Z,69.20
2018-07-08T07:07:13.702Z,70.50
2018-07-08T07:09:41.867Z,71.10
2018-07-08T07:12:10.101Z,70.80
2018-07-08T07:14:38.318Z,71.90
2018-07-08T07:17:06.547Z,71.10
2018-07-08T07:19:34.733Z,71.50
2018-07-08T07:22:02.927Z,71.00
2018-07-08T07:24:31.534Z,68.70
2018-07-08T07:26:59.745Z,67.50
2018-07-08T07:29:27.951Z,68.10
2018-07-08T07:34:24.171Z,67.00
2018-07-08T07:39:21.359Z,66.30
2018-07-08T07:41:49.559Z,67.10
2018-07-08T07:44:17.801Z,67.10
2018-07-08T07:46:46.028Z,66.70
2018-07-08T07:49:14.489Z,65.70
2018-07-08T07:51:42.726Z,66.20
2018-07-08T07:54:11.290Z,63.40
2018-07-08T07:56:39.520Z,63.90
2018-07-08T07:59:07.768Z,62.30
2018-07-08T08:01:35.920Z,63.10
2018-07-08T08:04:04.184Z,62.50
2018-07-08T08:06:32.390Z,63.40
2018-07-08T08:09:00.655Z,62.80
2018-07-08T08:11:28.840Z,63.20
2018-07-08T08:14:00.282Z,64.20
2018-07-08T08:16:28.500Z,62.90
2018-07-08T08:18:56.715Z,62.70
2018-07-08T08:21:25.586Z,63.00
2018-07-08T08:23:54.404Z,63.50
2018-07-08T08:26:22.632Z,61.00
2018-07-08T08:28:50.830Z,60.70
2018-07-08T08:31:19.244Z,61.50
2018-07-08T08:36:20.947Z,61.70
2018-07-08T08:38:49.383Z,61.40
2018-07-08T08:41:17.626Z,59.50
2018-07-08T08:43:45.879Z,59.40
2018-07-08T08:46:14.032Z,59.10
2018-07-08T08:48:42.589Z,58.30
2018-07-08T08:51:10.859Z,58.50
2018-07-08T08:53:39.087Z,57.00
2018-07-08T08:56:07.694Z,57.60
2018-07-08T08:58:35.905Z,56.70
2018-07-08T09:03:32.998Z,55.80
2018-07-08T09:06:01.260Z,56.10
2018-07-08T09:08:29.482Z,56.70
2018-07-08T09:10:57.714Z,55.70
2018-07-08T09:13:27.396Z,56.00
2018-07-08T09:15:55.575Z,54.90
2018-07-08T09:18:23.814Z,52.20
2018-07-08T09:20:51.997Z,52.40
2018-07-08T09:23:20.156Z,52.30
2018-07-08T09:25:48.307Z,52.00
2018-07-08T09:28:16.462Z,52.80
2018-07-08T09:30:44.608Z,52.90
2018-07-08T09:33:12.773Z,51.40
2018-07-08T09:35:40.963Z,51.50
2018-07-08T09:38:09.110Z,52.10
2018-07-08T09:40:37.569Z,52.40
2018-07-08T09:43:05.871Z,51.60
2018-07-08T09:45:34.090Z,52.00
2018-07-08T09:48:02.543Z,52.70
2018-07-08T09:50:31.105Z,51.30
2018-07-08T09:52:59.327Z,50.60
2018-07-08T09:55:27.585Z,52.60
2018-07-08T09:57:55.864Z,51.20
2018-07-08T10:00:25.165Z,51.40
2018-07-08T10:02:53.641Z,51.20
2018-07-08T10:05:21.934Z,50.70
2018-07-08T10:10:18.198Z,49.20
2018-07-08T10:12:46.482Z,49.60
2018-07-08T10:15:14.799Z,50.50
2018-07-08T10:17:43.117Z,51.20
2018-07-08T10:20:11.488Z,48.80
2018-07-08T10:22:39.679Z,47.30
2018-07-08T10:25:07.958Z,48.10
2018-07-08T10:27:59.326Z,47.30
2018-07-08T10:30:27.647Z,47.40
2018-07-08T10:32:56.234Z,48.80
2018-07-08T10:35:35.787Z,50.40
2018-07-08T10:38:04.083Z,49.50
2018-07-08T10:40:33.118Z,48.20
2018-07-08T10:43:01.400Z,49.20
2018-07-08T10:45:29.710Z,50.30
2018-07-08T10:47:57.970Z,49.60
2018-07-08T10:50:26.335Z,51.00
2018-07-08T10:52:54.659Z,49.60
2018-07-08T10:55:22.957Z,50.30
2018-07-08T10:57:51.229Z,47.20
2018-07-08T11:00:19.471Z,46.80
2018-07-08T11:02:47.893Z,47.30
2018-07-08T11:05:16.140Z,46.90
2018-07-08T11:07:44.368Z,47.50
2018-07-08T11:10:12.571Z,47.10
2018-07-08T11:12:40.871Z,46.40
2018-07-08T11:15:09.118Z,47.30
2018-07-08T11:17:37.567Z,47.70
2018-07-08T11:20:06.019Z,47.40
2018-07-08T11:22:34.318Z,47.70
2018-07-08T11:25:02.560Z,48.00
2018-07-08T11:27:30.801Z,47.80
2018-07-08T11:29:59.030Z,47.50
2018-07-08T11:32:27.243Z,48.60
2018-07-08T11:34:55.830Z,49.10
2018-07-08T11:37:24.038Z,49.60
2018-07-08T11:39:52.257Z,50.90
2018-07-08T11:42:20.709Z,50.20
2018-07-08T11:44:48.939Z,50.60
2018-07-08T11:47:17.140Z,51.50
2018-07-08T11:49:45.365Z,50.00
2018-07-08T11:52:13.579Z,50.00
2018-07-08T11:54:41.830Z,49.80
2018-07-08T11:57:10.045Z,51.00
2018-07-08T11:59:38.281Z,50.30
2018-07-08T12:02:06.538Z,50.10
2018-07-08T12:04:34.818Z,51.10
2018-07-08T12:07:03.090Z,49.50
2018-07-08T12:09:31.362Z,49.90
2018-07-08T12:11:59.634Z,50.00
2018-07-08T12:14:28.212Z,49.50
2018-07-08T12:16:56.511Z,50.50
2018-07-08T12:19:24.788Z,51.00
2018-07-08T12:21:53.059Z,50.80
2018-07-08T12:24:21.314Z,50.80
2018-07-08T12:26:49.822Z,49.60
2018-07-08T12:29:18.094Z,49.50
2018-07-08T12:31:46.382Z,48.30
2018-07-08T12:34:14.669Z,49.50
2018-07-08T12:36:42.946Z,49.10
2018-07-08T12:39:12.711Z,48.90
2018-07-08T12:42:43.707Z,48.50
2018-07-08T12:45:11.948Z,50.00
2018-07-08T12:50:08.202Z,48.50
2018-07-08T12:52:36.503Z,49.00
2018-07-08T12:55:04.769Z,50.00
2018-07-08T12:57:33.142Z,50.10
2018-07-08T13:00:01.529Z,49.00
2018-07-08T13:02:29.798Z,50.10
2018-07-08T13:04:58.012Z,49.90
2018-07-08T13:07:26.262Z,49.00
2018-07-08T13:09:54.482Z,50.00
2018-07-08T13:12:22.790Z,48.50
2018-07-08T13:14:51.030Z,49.20
2018-07-08T13:17:19.241Z,48.00
2018-07-08T13:19:47.512Z,48.50
2018-07-08T13:22:15.749Z,49.30
2018-07-08T13:24:43.960Z,46.60
2018-07-08T13:27:12.395Z,47.90
2018-07-08T13:29:47.146Z,48.20
2018-07-08T13:32:15.485Z,48.90
2018-07-08T13:34:43.695Z,46.70
2018-07-08T13:37:11.898Z,47.30
2018-07-08T13:39:40.438Z,47.00
2018-07-08T13:42:08.666Z,45.50
2018-07-08T13:44:36.913Z,46.40
2018-07-08T13:47:05.293Z,46.10
2018-07-08T13:49:33.875Z,46.40
2018-07-08T13:52:02.094Z,46.00
2018-07-08T13:54:30.307Z,47.10
2018-07-08T13:56:58.530Z,47.50
2018-07-08T13:59:26.759Z,47.20
2018-07-08T14:01:55.617Z,47.00
2018-07-08T14:04:24.493Z,47.30
2018-07-08T14:06:52.710Z,45.70
2018-07-08T14:09:21.050Z,47.30
2018-07-08T14:11:49.185Z,46.30
2018-07-08T14:14:18.952Z,46.40
2018-07-08T14:16:47.171Z,46.20
2018-07-08T14:19:15.399Z,46.70
2018-07-08T14:21:43.660Z,45.50
2018-07-08T14:24:11.870Z,45.30
2018-07-08T14:26:40.095Z,46.10
2018-07-08T14:29:08.310Z,46.30
2018-07-08T14:31:36.558Z,47.20
2018-07-08T14:34:04.831Z,46.40
2018-07-08T14:36:33.077Z,45.20
2018-07-08T14:39:05.269Z,44.00
2018-07-08T14:41:34.927Z,43.10
2018-07-08T14:44:27.070Z,45.10
2018-07-08T14:47:00.560Z,45.80
2018-07-08T14:49:50.742Z,45.70
2018-07-08T14:52:28.655Z,44.20
2018-07-08T14:55:10.448Z,44.20
2018-07-08T14:57:44.101Z,43.80
2018-07-08T15:00:13.835Z,44.40
2018-07-08T15:02:53.332Z,43.60
2018-07-08T15:05:24.354Z,42.10
2018-07-08T15:08:03.252Z,43.50
2018-07-08T15:10:33.358Z,42.50
2018-07-08T15:13:14.024Z,42.50
2018-07-08T15:15:57.418Z,42.60
2018-07-08T15:18:27.823Z,43.20
2018-07-08T15:21:14.269Z,43.00
2018-07-08T15:26:39.203Z,42.90
2018-07-08T15:29:16.057Z,42.10
2018-07-08T15:31:45.024Z,42.10
2018-07-08T15:34:14.792Z,42.50
2018-07-08T15:36:46.348Z,43.00
2018-07-08T15:39:17.410Z,42.10
2018-07-08T15:41:48.813Z,43.40
2018-07-08T15:44:20.091Z,43.20
2018-07-08T15:46:48.780Z,43.80
2018-07-08T15:49:17.353Z,44.20
2018-07-08T15:51:45.803Z,44.30
2018-07-08T15:54:14.600Z,42.90
2018-07-08T15:56:43.672Z,43.80
2018-07-08T15:59:12.237Z,44.00
2018-07-08T16:01:52.630Z,43.50
2018-07-08T16:04:21.283Z,43.90
2018-07-08T16:06:49.759Z,43.70
2018-07-08T16:09:18.435Z,43.30
2018-07-08T16:11:47.213Z,42.50
2018-07-08T16:14:15.647Z,43.70
2018-07-08T16:16:44.746Z,43.80
2018-07-08T16:19:13.027Z,44.50
2018-07-08T16:21:41.623Z,43.60
2018-07-08T16:24:10.109Z,44.10
2018-07-08T16:26:38.397Z,45.20
2018-07-08T16:29:06.870Z,43.90
2018-07-08T16:31:35.178Z,43.70
2018-07-08T16:34:03.936Z,42.80
2018-07-08T16:36:47.542Z,42.70
2018-07-08T16:39:16.508Z,43.30
2018-07-08T16:41:45.822Z,45.00
2018-07-08T16:44:14.140Z,43.90
2018-07-08T16:46:42.529Z,44.20
2018-07-08T16:49:10.841Z,43.00
2018-07-08T16:51:39.228Z,43.50
2018-07-08T16:54:08.426Z,44.20
2018-07-08T16:56:36.764Z,44.00
2018-07-08T16:59:05.101Z,44.10
2018-07-08T17:01:33.555Z,44.50
2018-07-08T17:04:02.132Z,44.80
2018-07-08T17:06:30.645Z,45.60
2018-07-08T17:08:59.081Z,43.50
2018-07-08T17:11:28.461Z,44.40
2018-07-08T17:13:57.302Z,43.60
2018-07-08T17:16:25.712Z,42.50
2018-07-08T17:18:54.137Z,43.00
2018-07-08T17:21:22.581Z,44.00
2018-07-08T17:23:53.401Z,42.90
2018-07-08T17:26:22.144Z,42.40
2018-07-08T17:28:50.535Z,42.30
2018-07-08T17:31:18.801Z,43.70
2018-07-08T17:33:47.143Z,43.70
2018-07-08T17:36:15.624Z,44.40
2018-07-08T17:38:43.981Z,44.10
2018-07-08T17:41:12.370Z,44.40
2018-07-08T17:43:41.271Z,44.50
2018-07-08T17:46:09.645Z,45.30
2018-07-08T17:48:38.099Z,45.40
2018-07-08T17:51:06.377Z,44.90
2018-07-08T17:53:34.874Z,44.30
2018-07-08T17:56:03.475Z,44.50
2018-07-08T17:58:32.006Z,44.10
2018-07-08T18:01:00.385Z,44.30
2018-07-08T18:03:28.789Z,44.10
2018-07-08T18:05:57.163Z,43.90
2018-07-08T18:08:25.604Z,44.10
2018-07-08T18:10:53.937Z,44.60
2018-07-08T18:13:22.338Z,43.80
2018-07-08T18:15:50.755Z,43.60
2018-07-08T18:18:19.215Z,43.70
2018-07-08T18:20:47.828Z,43.80
2018-07-08T18:23:16.307Z,44.30
2018-07-08T18:25:44.643Z,44.30
2018-07-08T18:28:13.049Z,44.40
2018-07-08T18:30:42.019Z,44.30
2018-07-08T18:33:13.679Z,44.50
2018-07-08T18:35:43.081Z,45.00
2018-07-08T18:38:12.190Z,44.80
2018-07-08T18:40:42.968Z,45.30
2018-07-08T18:43:16.098Z,45.00
2018-07-08T18:45:45.128Z,45.40
2018-07-08T18:48:13.643Z,45.70
2018-07-08T18:50:49.662Z,45.60
2018-07-08T18:53:18.131Z,45.80
2018-07-08T18:55:46.553Z,45.60
2018-07-08T18:58:14.926Z,45.60
2018-07-08T19:00:43.235Z,45.70
2018-07-08T19:03:11.623Z,46.10
2018-07-08T19:05:40.108Z,45.90
2018-07-08T19:08:08.721Z,45.50
2018-07-08T19:10:37.427Z,45.50
2018-07-08T19:13:06.104Z,45.90
2018-07-08T19:15:34.520Z,45.60
2018-07-08T19:18:03.792Z,45.70
2018-07-08T19:20:32.114Z,45.90
2018-07-08T19:23:00.516Z,46.10
2018-07-08T19:25:33.158Z,45.70
2018-07-08T19:28:03.319Z,46.20
2018-07-08T19:30:42.272Z,45.80
2018-07-08T19:33:11.757Z,46.30
2018-07-08T19:35:45.081Z,46.60
2018-07-08T19:38:13.491Z,47.20
2018-07-08T19:43:11.410Z,47.50
2018-07-08T19:48:08.097Z,48.50
2018-07-08T19:50:36.627Z,49.10
2018-07-08T19:53:05.037Z,49.50
2018-07-08T19:55:33.406Z,49.60
2018-07-08T19:58:01.898Z,49.20
2018-07-08T20:00:30.332Z,49.40
2018-07-08T20:05:27.190Z,52.30
2018-07-08T20:07:55.430Z,52.60
2018-07-08T20:10:27.085Z,54.30
2018-07-08T20:12:55.727Z,54.70
2018-07-08T20:15:24.328Z,55.80
2018-07-08T20:17:52.765Z,56.70
2018-07-08T20:20:21.209Z,56.90
2018-07-08T20:22:49.648Z,57.00
2018-07-08T20:25:18.283Z,56.80
2018-07-08T20:27:46.745Z,56.30
2018-07-08T20:30:15.170Z,57.10
2018-07-08T20:32:43.438Z,57.20
2018-07-08T20:35:11.912Z,57.90
2018-07-08T20:37:40.359Z,58.60
2018-07-08T20:42:36.994Z,58.60
2018-07-08T20:45:05.481Z,59.00
2018-07-08T20:47:34.099Z,59.30
2018-07-08T20:50:02.694Z,59.20
2018-07-08T20:52:31.083Z,58.70
2018-07-08T20:55:00.721Z,59.20
2018-07-08T20:57:29.336Z,58.80
2018-07-08T20:59:58.162Z,58.60
2018-07-08T21:02:27.730Z,58.80
2018-07-08T21:04:56.256Z,59.10
2018-07-08T21:07:25.509Z,59.40
2018-07-08T21:09:54.344Z,59.70
2018-07-08T21:12:22.973Z,60.00
2018-07-08T21:14:58.347Z,60.70
2018-07-08T21:17:27.041Z,61.50
2018-07-08T21:22:30.573Z,61.50
2018-07-08T21:24:58.770Z,62.30
2018-07-08T21:27:26.994Z,62.20
2018-07-08T21:29:55.213Z,63.30
2018-07-08T21:32:23.411Z,63.80
2018-07-08T21:34:51.851Z,64.10
2018-07-08T21:37:20.413Z,64.50
2018-07-08T21:39:48.771Z,66.30
2018-07-08T21:42:16.964Z,66.10
2018-07-08T21:44:45.105Z,65.70
2018-07-08T21:47:13.394Z,65.90
2018-07-08T21:52:15.240Z,66.00
2018-07-08T21:54:52.256Z,65.90
2018-07-08T21:57:26.981Z,65.60
2018-07-08T21:59:58.355Z,65.30
2018-07-08T22:02:27.986Z,65.40
2018-07-08T22:04:56.471Z,65.40
2018-07-08T22:07:29.084Z,66.10
2018-07-08T22:09:57.540Z,66.90
2018-07-08T22:12:26.722Z,67.30
2018-07-08T22:14:55.278Z,67.10
2018-07-08T22:17:23.555Z,68.00
2018-07-08T22:19:53.183Z,68.60
2018-07-08T22:22:26.542Z,68.10
2018-07-08T22:25:00.102Z,68.00
2018-07-08T22:27:29.340Z,68.20
2018-07-08T22:29:57.702Z,69.30
2018-07-08T22:32:29.674Z,69.40
2018-07-08T22:35:01.436Z,69.50
2018-07-08T22:37:30.043Z,69.50
2018-07-08T22:39:58.579Z,69.90
2018-07-08T22:42:27.331Z,70.10
2018-07-08T22:44:55.844Z,70.80
2018-07-08T22:47:24.501Z,70.10
2018-07-08T22:49:53.053Z,69.80
2018-07-08T22:52:21.824Z,69.70
2018-07-08T22:54:50.008Z,69.90
2018-07-08T22:57:18.300Z,69.80
2018-07-08T22:59:58.091Z,69.20
2018-07-08T23:02:38.037Z,69.40
2018-07-08T23:05:08.681Z,69.60
2018-07-08T23:07:37.402Z,69.80
2018-07-08T23:10:05.999Z,70.50
2018-07-08T23:12:34.237Z,70.80
2018-07-08T23:15:03.082Z,70.80
2018-07-08T23:17:31.796Z,70.90
2018-07-08T23:20:00.463Z,71.30
2018-07-08T23:22:39.861Z,71.60
2018-07-08T23:25:09.060Z,71.70
2018-07-08T23:27:37.430Z,71.40
2018-07-08T23:30:05.923Z,71.30
2018-07-08T23:32:34.545Z,71.00
2018-07-08T23:35:02.799Z,71.90
2018-07-08T23:37:32.171Z,71.90
2018-07-08T23:40:00.486Z,71.10
2018-07-08T23:42:28.758Z,70.70
2018-07-08T23:44:56.966Z,70.90
2018-07-08T23:47:25.194Z,70.90
2018-07-08T23:49:53.436Z,71.30
2018-07-08T23:52:21.667Z,71.40
2018-07-08T23:54:49.874Z,71.60
2018-07-08T23:57:18.097Z,71.80
2018-07-08T23:59:46.301Z,71.80
